Time,TemperatureF,DewpointF,PressureIn,WindDirection,WindDirectionDegrees,WindSpeedMPH,WindSpeedGustMPH,Humidity,HourlyPrecipIn,Conditions,Clouds,dailyrainin,SoftwareType,DateUTC
2013-04-26 00:01:00,45.8,35.8,30.27,West,270,0.0,0.0,68,0.00,,---,0.00,VWS V14.00,2013-04-26 04:01:00,
2013-04-26 00:02:00,45.8,35.8,30.27,West,270,0.0,0.0,68,0.00,,---,0.00,VWS V14.00,2013-04-26 04:02:00,
2013-04-26 00:07:00,45.6,35.7,30.28,West,270,0.0,0.0,68,0.00,,---,0.00,VWS V14.00,2013-04-26 04:07:00,
2013-04-26 00:12:00,45.5,35.6,30.27,West,270,0.0,0.0,68,0.00,,---,0.00,VWS V14.00,2013-04-26 04:12:00,
2013-04-26 00:17:00,45.3,35.4,30.27,West,270,0.0,0.0,68,0.00,,---,0.00,VWS V14.00,2013-04-26 04:17:00,
2013-04-26 00:22:00,45.1,35.2,30.28,West,270,0.0,0.0,68,0.00,,---,0.00,VWS V14.00,2013-04-26 04:22:00,
2013-04-26 00:27:00,45.1,35.5,30.28,West,270,0.0,0.0,69,0.00,,---,0.00,VWS V14.00,2013-04-26 04:27:00,
2013-04-26 00:32:00,44.9,35.4,30.27,West,270,0.0,0.0,69,0.00,,---,0.00,VWS V14.00,2013-04-26 04:32:00,
2013-04-26 00:37:00,44.9,35.4,30.27,West,270,0.0,0.0,69,0.00,,---,0.00,VWS V14.00,2013-04-26 04:37:00,
2013-04-26 00:42:00,44.6,35.4,30.27,West,270,0.0,0.0,70,0.00,,---,0.00,VWS V14.00,2013-04-26 04:42:00,
2013-04-26 00:47:00,44.4,35.2,30.28,West,270,0.0,0.0,70,0.00,,---,0.00,VWS V14.00,2013-04-26 04:47:00,
2013-04-26 00:52:00,44.2,35.0,30.28,West,270,0.0,0.0,70,0.00,,---,0.00,VWS V14.00,2013-04-26 04:52:00,
2013-04-26 00:57:00,44.2,35.4,30.28,West,270,0.0,0.0,71,0.00,,---,0.00,VWS V14.00,2013-04-26 04:57:00,
2013-04-26 01:02:00,43.8,35.4,30.28,West,270,0.0,0.0,72,0.00,,---,0.00,VWS V14.00,2013-04-26 05:02:00,
2013-04-26 01:07:00,43.7,35.3,30.28,West,270,0.0,0.0,72,0.00,,---,0.00,VWS V14.00,2013-04-26 05:07:00,
2013-04-26 01:12:00,43.7,35.3,30.28,West,270,0.0,0.0,72,0.00,,---,0.00,VWS V14.00,2013-04-26 05:12:00,
2013-04-26 01:17:00,43.5,35.1,30.28,West,270,0.0,0.0,72,0.00,,---,0.00,VWS V14.00,2013-04-26 05:17:00,
2013-04-26 01:22:00,43.3,34.9,30.28,West,270,0.0,0.0,72,0.00,,---,0.00,VWS V14.00,2013-04-26 05:22:00,
2013-04-26 01:27:00,43.1,34.7,30.28,West,270,0.0,0.0,72,0.00,,---,0.00,VWS V14.00,2013-04-26 05:27:00,
2013-04-26 01:32:00,42.9,34.5,30.29,West,270,0.0,0.0,72,0.00,,---,0.00,VWS V14.00,2013-04-26 05:32:00,
2013-04-26 01:37:00,42.9,34.5,30.28,West,270,0.0,0.0,72,0.00,,---,0.00,VWS V14.00,2013-04-26 05:37:00,
2013-04-26 01:42:00,42.8,34.8,30.28,West,270,0.0,0.0,73,0.00,,---,0.00,VWS V14.00,2013-04-26 05:42:00,
2013-04-26 01:47:00,42.6,34.9,30.28,West,270,0.0,0.0,74,0.00,,---,0.00,VWS V14.00,2013-04-26 05:47:00,
2013-04-26 01:52:00,42.6,35.2,30.28,West,270,0.0,0.0,75,0.00,,---,0.00,VWS V14.00,2013-04-26 05:52:00,
2013-04-26 01:57:00,42.6,35.2,30.27,West,270,0.0,0.0,75,0.00,,---,0.00,VWS V14.00,2013-04-26 05:57:00,
2013-04-26 02:02:00,42.6,35.2,30.28,West,270,0.0,0.0,75,0.00,,---,0.00,VWS V14.00,2013-04-26 06:02:00,
2013-04-26 02:07:00,42.4,35.0,30.28,West,270,0.0,0.0,75,0.00,,---,0.00,VWS V14.00,2013-04-26 06:07:00,
2013-04-26 02:12:00,42.6,35.2,30.28,West,270,0.0,1.3,75,0.00,,---,0.00,VWS V14.00,2013-04-26 06:12:00,
2013-04-26 02:17:00,42.6,35.2,30.28,West,270,0.0,1.3,75,0.00,,---,0.00,VWS V14.00,2013-04-26 06:17:00,
2013-04-26 02:22:00,42.9,35.2,30.28,West,270,0.0,0.0,74,0.00,,---,0.00,VWS V14.00,2013-04-26 06:22:00,
2013-04-26 02:27:00,43.1,35.4,30.28,West,270,0.0,0.0,74,0.00,,---,0.00,VWS V14.00,2013-04-26 06:27:00,
2013-04-26 02:32:00,43.1,35.0,30.27,West,270,0.0,0.0,73,0.00,,---,0.00,VWS V14.00,2013-04-26 06:32:00,
2013-04-26 02:37:00,43.1,35.0,30.27,West,270,0.0,0.0,73,0.00,,---,0.00,VWS V14.00,2013-04-26 06:37:00,
2013-04-26 02:42:00,42.9,34.8,30.27,West,270,2.4,2.4,73,0.00,,---,0.00,VWS V14.00,2013-04-26 06:42:00,
2013-04-26 02:47:00,42.6,34.9,30.27,West,270,0.0,2.4,74,0.00,,---,0.00,VWS V14.00,2013-04-26 06:47:00,
2013-04-26 02:52:00,42.6,34.9,30.27,West,270,0.0,0.0,74,0.00,,---,0.00,VWS V14.00,2013-04-26 06:52:00,
2013-04-26 02:57:00,42.6,35.2,30.28,West,270,0.0,0.0,75,0.00,,---,0.00,VWS V14.00,2013-04-26 06:57:00,
2013-04-26 03:02:00,42.4,35.0,30.27,West,270,0.0,0.0,75,0.00,,---,0.00,VWS V14.00,2013-04-26 07:02:00,
2013-04-26 03:07:00,42.4,35.0,30.27,West,270,0.0,0.0,75,0.00,,---,0.00,VWS V14.00,2013-04-26 07:07:00,
2013-04-26 03:12:00,42.0,34.7,30.27,West,270,0.0,0.8,75,0.00,,---,0.00,VWS V14.00,2013-04-26 07:12:00,
2013-04-26 03:17:00,42.0,34.7,30.28,West,270,0.0,0.8,75,0.00,,---,0.00,VWS V14.00,2013-04-26 07:17:00,
2013-04-26 03:22:00,42.0,34.7,30.27,West,270,1.5,1.5,75,0.00,,---,0.00,VWS V14.00,2013-04-26 07:22:00,
2013-04-26 03:27:00,42.2,34.9,30.28,West,270,2.6,2.6,75,0.00,,---,0.00,VWS V14.00,2013-04-26 07:27:00,
2013-04-26 03:32:00,42.6,35.2,30.28,West,270,0.0,0.0,75,0.00,,---,0.00,VWS V14.00,2013-04-26 07:32:00,
2013-04-26 03:37:00,42.6,35.2,30.28,West,270,0.0,0.0,75,0.00,,---,0.00,VWS V14.00,2013-04-26 07:37:00,
2013-04-26 03:42:00,42.6,34.9,30.28,West,270,1.5,1.5,74,0.00,,---,0.00,VWS V14.00,2013-04-26 07:42:00,
2013-04-26 03:47:00,42.6,34.9,30.28,West,270,0.0,1.5,74,0.00,,---,0.00,VWS V14.00,2013-04-26 07:47:00,
2013-04-26 03:52:00,42.6,34.9,30.28,West,270,0.0,0.0,74,0.00,,---,0.00,VWS V14.00,2013-04-26 07:52:00,
2013-04-26 03:57:00,42.6,34.9,30.27,West,270,0.0,0.0,74,0.00,,---,0.00,VWS V14.00,2013-04-26 07:57:00,
2013-04-26 04:02:00,42.6,34.9,30.28,West,270,0.0,0.0,74,0.00,,---,0.00,VWS V14.00,2013-04-26 08:02:00,
2013-04-26 04:07:00,42.4,34.7,30.28,West,270,0.0,0.0,74,0.00,,---,0.00,VWS V14.00,2013-04-26 08:07:00,
2013-04-26 04:12:00,42.4,34.7,30.28,West,270,0.0,0.8,74,0.00,,---,0.00,VWS V14.00,2013-04-26 08:12:00,
2013-04-26 04:17:00,42.2,34.9,30.28,West,270,0.0,4.6,75,0.00,,---,0.00,VWS V14.00,2013-04-26 08:17:00,
2013-04-26 04:22:00,42.0,34.7,30.27,West,270,0.4,0.4,75,0.00,,---,0.00,VWS V14.00,2013-04-26 08:22:00,
2013-04-26 04:27:00,42.0,34.7,30.28,West,270,0.0,0.4,75,0.00,,---,0.00,VWS V14.00,2013-04-26 08:27:00,
2013-04-26 04:32:00,42.0,34.7,30.28,West,270,0.0,0.0,75,0.00,,---,0.00,VWS V14.00,2013-04-26 08:32:00,
2013-04-26 04:38:00,41.9,34.6,30.27,West,270,0.0,0.0,75,0.00,,---,0.00,VWS V14.00,2013-04-26 08:38:00,
2013-04-26 04:43:00,41.7,34.4,30.28,West,270,0.0,0.0,75,0.00,,---,0.00,VWS V14.00,2013-04-26 08:43:00,
2013-04-26 04:48:00,41.5,34.2,30.28,West,270,0.0,0.0,75,0.00,,---,0.00,VWS V14.00,2013-04-26 08:48:00,
2013-04-26 04:53:00,41.3,34.0,30.28,West,270,0.0,0.0,75,0.00,,---,0.00,VWS V14.00,2013-04-26 08:53:00,
2013-04-26 04:58:00,41.1,33.8,30.28,West,270,0.0,0.0,75,0.00,,---,0.00,VWS V14.00,2013-04-26 08:58:00,
2013-04-26 05:03:00,41.1,33.8,30.28,West,270,0.0,0.0,75,0.00,,---,0.00,VWS V14.00,2013-04-26 09:03:00,
2013-04-26 05:08:00,41.0,34.0,30.28,West,270,0.0,0.0,76,0.00,,---,0.00,VWS V14.00,2013-04-26 09:08:00,
2013-04-26 05:13:00,40.8,33.8,30.28,West,270,0.0,0.0,76,0.00,,---,0.00,VWS V14.00,2013-04-26 09:13:00,
2013-04-26 05:18:00,40.6,34.0,30.28,West,270,0.0,0.0,77,0.00,,---,0.00,VWS V14.00,2013-04-26 09:18:00,
2013-04-26 05:23:00,40.6,34.0,30.28,West,270,0.0,0.0,77,0.00,,---,0.00,VWS V14.00,2013-04-26 09:23:00,
2013-04-26 05:28:00,40.2,33.6,30.29,West,270,0.0,0.0,77,0.00,,---,0.00,VWS V14.00,2013-04-26 09:28:00,
2013-04-26 05:33:00,40.2,33.9,30.29,West,270,0.0,0.0,78,0.00,,---,0.00,VWS V14.00,2013-04-26 09:33:00,
2013-04-26 05:38:00,40.1,33.8,30.29,West,270,0.0,0.0,78,0.00,,---,0.00,VWS V14.00,2013-04-26 09:38:00,
2013-04-26 05:43:00,39.9,33.6,30.29,West,270,0.0,0.0,78,0.00,,---,0.00,VWS V14.00,2013-04-26 09:43:00,
2013-04-26 05:48:00,39.9,33.6,30.29,West,270,0.0,0.0,78,0.00,,---,0.00,VWS V14.00,2013-04-26 09:48:00,
2013-04-26 05:53:00,39.7,33.4,30.29,West,270,0.0,0.0,78,0.00,,---,0.00,VWS V14.00,2013-04-26 09:53:00,
2013-04-26 05:58:00,39.7,33.4,30.28,West,270,0.0,0.0,78,0.00,,---,0.00,VWS V14.00,2013-04-26 09:58:00,
2013-04-26 06:03:00,39.7,33.7,30.29,West,270,0.0,0.0,79,0.00,,---,0.00,VWS V14.00,2013-04-26 10:03:00,
2013-04-26 06:08:00,39.5,33.5,30.29,West,270,0.0,0.0,79,0.00,,---,0.00,VWS V14.00,2013-04-26 10:08:00,
2013-04-26 06:13:00,39.3,33.3,30.29,West,270,0.0,0.0,79,0.00,,---,0.00,VWS V14.00,2013-04-26 10:13:00,
2013-04-26 06:18:00,39.3,33.3,30.29,West,270,0.0,0.0,79,0.00,,---,0.00,VWS V14.00,2013-04-26 10:18:00,
2013-04-26 06:23:00,39.0,33.4,30.29,West,270,0.0,0.0,80,0.00,,---,0.00,VWS V14.00,2013-04-26 10:23:00,
2013-04-26 06:28:00,39.0,33.4,30.30,West,270,0.0,0.0,80,0.00,,---,0.00,VWS V14.00,2013-04-26 10:28:00,
2013-04-26 06:33:00,38.8,33.2,30.30,West,270,0.0,0.0,80,0.00,,---,0.00,VWS V14.00,2013-04-26 10:33:00,
2013-04-26 06:38:00,38.8,33.5,30.30,West,270,0.0,0.0,81,0.00,,---,0.00,VWS V14.00,2013-04-26 10:38:00,
2013-04-26 06:43:00,38.8,33.5,30.31,West,270,0.0,0.0,81,0.00,,---,0.00,VWS V14.00,2013-04-26 10:43:00,
2013-04-26 06:48:00,38.4,33.4,30.31,West,270,0.0,0.0,82,0.00,,---,0.00,VWS V14.00,2013-04-26 10:48:00,
2013-04-26 06:53:00,38.4,33.4,30.31,West,270,0.0,0.0,82,0.00,,---,0.00,VWS V14.00,2013-04-26 10:53:00,
2013-04-26 06:58:00,38.4,33.4,30.31,West,270,0.0,0.0,82,0.00,,---,0.00,VWS V14.00,2013-04-26 10:58:00,
2013-04-26 07:03:00,38.4,33.7,30.31,West,270,0.0,0.0,83,0.00,,---,0.00,VWS V14.00,2013-04-26 11:03:00,
2013-04-26 07:08:00,38.6,33.6,30.32,West,270,0.0,0.0,82,0.00,,---,0.00,VWS V14.00,2013-04-26 11:08:00,
2013-04-26 07:13:00,38.8,33.8,30.32,West,270,0.0,0.0,82,0.00,,---,0.00,VWS V14.00,2013-04-26 11:13:00,
2013-04-26 07:18:00,39.0,34.0,30.32,West,270,0.0,0.0,82,0.00,,---,0.00,VWS V14.00,2013-04-26 11:18:00,
2013-04-26 07:23:00,39.3,34.3,30.32,West,270,0.0,0.0,82,0.00,,---,0.00,VWS V14.00,2013-04-26 11:23:00,
2013-04-26 07:28:00,39.5,34.5,30.33,West,270,0.0,0.0,82,0.00,,---,0.00,VWS V14.00,2013-04-26 11:28:00,
2013-04-26 07:33:00,39.5,34.5,30.33,West,270,0.0,0.0,82,0.00,,---,0.00,VWS V14.00,2013-04-26 11:33:00,
2013-04-26 07:38:00,40.1,35.1,30.33,West,270,0.0,0.0,82,0.00,,---,0.00,VWS V14.00,2013-04-26 11:38:00,
2013-04-26 07:43:00,40.6,35.2,30.34,West,270,0.0,0.0,81,0.00,,---,0.00,VWS V14.00,2013-04-26 11:43:00,
2013-04-26 07:48:00,41.1,35.7,30.34,West,270,0.0,0.0,81,0.00,,---,0.00,VWS V14.00,2013-04-26 11:48:00,
2013-04-26 07:53:00,41.7,36.0,30.34,West,270,0.0,0.8,80,0.00,,---,0.00,VWS V14.00,2013-04-26 11:53:00,
2013-04-26 07:58:00,43.3,37.2,30.34,West,270,0.0,0.8,79,0.00,,---,0.00,VWS V14.00,2013-04-26 11:58:00,
2013-04-26 08:03:00,44.9,38.5,30.34,West,270,0.0,0.0,78,0.00,,---,0.00,VWS V14.00,2013-04-26 12:03:00,
2013-04-26 08:08:00,46.5,39.7,30.34,West,270,0.0,0.0,77,0.00,,---,0.00,VWS V14.00,2013-04-26 12:08:00,
2013-04-26 08:13:00,48.7,40.5,30.35,West,270,0.0,0.0,73,0.00,,---,0.00,VWS V14.00,2013-04-26 12:13:00,
2013-04-26 08:18:00,49.1,40.1,30.35,West,270,0.0,0.2,71,0.00,,---,0.00,VWS V14.00,2013-04-26 12:18:00,
2013-04-26 08:23:00,49.2,39.8,30.35,West,270,0.0,0.0,70,0.00,,---,0.00,VWS V14.00,2013-04-26 12:23:00,
2013-04-26 08:28:00,49.2,39.8,30.35,West,270,0.0,0.0,70,0.00,,---,0.00,VWS V14.00,2013-04-26 12:28:00,
2013-04-26 08:33:00,49.4,40.0,30.35,West,270,0.0,0.4,70,0.00,,---,0.00,VWS V14.00,2013-04-26 12:33:00,
2013-04-26 08:38:00,49.6,39.9,30.35,West,270,0.0,0.4,69,0.00,,---,0.00,VWS V14.00,2013-04-26 12:38:00,
2013-04-26 08:43:00,50.1,40.3,30.35,West,270,0.0,0.0,69,0.00,,---,0.00,VWS V14.00,2013-04-26 12:43:00,
2013-04-26 08:48:00,50.5,40.3,30.36,West,270,0.0,0.0,68,0.00,,---,0.00,VWS V14.00,2013-04-26 12:48:00,
2013-04-26 08:53:00,51.2,41.0,30.36,West,270,0.8,0.8,68,0.00,,---,0.00,VWS V14.00,2013-04-26 12:53:00,
2013-04-26 08:58:00,51.8,40.8,30.36,ENE,68,0.0,4.0,66,0.00,,---,0.00,VWS V14.00,2013-04-26 12:58:00,
2013-04-26 09:03:00,51.9,39.3,30.36,NE,45,4.2,4.2,62,0.00,,---,0.00,VWS V14.00,2013-04-26 13:03:00,
2013-04-26 09:08:00,52.5,39.9,30.36,NE,45,4.4,4.4,62,0.00,,---,0.00,VWS V14.00,2013-04-26 13:08:00,
2013-04-26 09:13:00,53.2,39.7,30.36,ENE,68,0.0,5.1,60,0.00,,---,0.00,VWS V14.00,2013-04-26 13:13:00,
2013-04-26 09:18:00,53.7,40.2,30.36,ENE,68,2.4,5.1,60,0.00,,---,0.00,VWS V14.00,2013-04-26 13:18:00,
2013-04-26 09:23:00,54.6,40.6,30.36,ENE,68,0.0,2.6,59,0.00,,---,0.00,VWS V14.00,2013-04-26 13:23:00,
2013-04-26 09:28:00,55.2,41.1,30.36,ENE,68,0.0,2.6,59,0.00,,---,0.00,VWS V14.00,2013-04-26 13:28:00,
2013-04-26 09:33:00,56.1,42.0,30.36,ENE,68,0.0,0.0,59,0.00,,---,0.00,VWS V14.00,2013-04-26 13:33:00,
2013-04-26 09:39:00,56.8,42.2,30.37,ENE,68,0.0,0.4,58,0.00,,---,0.00,VWS V14.00,2013-04-26 13:39:00,
2013-04-26 09:44:00,57.5,42.8,30.37,NE,45,0.0,0.0,58,0.00,,---,0.00,VWS V14.00,2013-04-26 13:44:00,
2013-04-26 09:49:00,58.2,44.0,30.36,SW,225,0.0,0.0,59,0.00,,---,0.00,VWS V14.00,2013-04-26 13:49:00,
2013-04-26 09:54:00,58.6,43.0,30.36,NE,45,0.6,2.9,56,0.00,,---,0.00,VWS V14.00,2013-04-26 13:54:00,
2013-04-26 09:59:00,58.8,43.6,30.37,NE,45,0.0,2.9,57,0.00,,---,0.00,VWS V14.00,2013-04-26 13:59:00,
2013-04-26 10:04:00,59.3,44.1,30.37,SSE,158,0.0,0.0,57,0.00,,---,0.00,VWS V14.00,2013-04-26 14:04:00,
2013-04-26 10:09:00,60.0,43.3,30.37,NE,45,0.6,0.6,54,0.00,,---,0.00,VWS V14.00,2013-04-26 14:09:00,
2013-04-26 10:14:00,59.9,43.7,30.37,ESE,112,0.6,2.4,55,0.00,,---,0.00,VWS V14.00,2013-04-26 14:14:00,
2013-04-26 10:19:00,60.4,44.7,30.37,South,180,0.0,2.4,56,0.00,,---,0.00,VWS V14.00,2013-04-26 14:19:00,
2013-04-26 10:24:00,60.9,44.6,30.36,NNE,22,0.2,0.2,55,0.00,,---,0.00,VWS V14.00,2013-04-26 14:24:00,
2013-04-26 10:29:00,61.3,45.5,30.36,SW,225,1.3,1.3,56,0.00,,---,0.00,VWS V14.00,2013-04-26 14:29:00,
2013-04-26 10:34:00,61.8,45.5,30.36,SSW,202,0.0,0.0,55,0.00,,---,0.00,VWS V14.00,2013-04-26 14:34:00,
2013-04-26 10:39:00,62.4,46.5,30.36,SE,135,0.0,0.0,56,0.00,,---,0.00,VWS V14.00,2013-04-26 14:39:00,
2013-04-26 10:44:00,62.7,46.8,30.36,NNE,22,6.9,6.9,56,0.00,,---,0.00,VWS V14.00,2013-04-26 14:44:00,
2013-04-26 10:49:00,63.1,46.2,30.36,NNE,22,0.0,6.9,54,0.00,,---,0.00,VWS V14.00,2013-04-26 14:49:00,
2013-04-26 10:54:00,63.1,46.7,30.36,SE,135,3.3,3.3,55,0.00,,---,0.00,VWS V14.00,2013-04-26 14:54:00,
2013-04-26 10:59:00,63.5,46.6,30.36,East,90,2.6,3.3,54,0.00,,---,0.00,VWS V14.00,2013-04-26 14:59:00,
2013-04-26 11:04:00,63.3,45.9,30.36,ESE,112,0.4,2.2,53,0.00,,---,0.00,VWS V14.00,2013-04-26 15:04:00,
2013-04-26 11:09:00,63.3,46.4,30.36,SSE,158,0.0,2.2,54,0.00,,---,0.00,VWS V14.00,2013-04-26 15:09:00,
2013-04-26 11:14:00,63.3,45.9,30.37,SE,135,0.0,0.0,53,0.00,,---,0.00,VWS V14.00,2013-04-26 15:14:00,
2013-04-26 11:19:00,63.5,45.6,30.37,ESE,112,2.6,2.6,52,0.00,,---,0.00,VWS V14.00,2013-04-26 15:19:00,
2013-04-26 11:24:00,63.5,46.1,30.38,SSW,202,0.0,2.6,53,0.00,,---,0.00,VWS V14.00,2013-04-26 15:24:00,
2013-04-26 11:29:00,63.6,46.2,30.37,ENE,68,0.6,2.6,53,0.00,,---,0.00,VWS V14.00,2013-04-26 15:29:00,
2013-04-26 11:34:00,64.0,46.0,30.38,NE,45,0.0,4.2,52,0.00,,---,0.00,VWS V14.00,2013-04-26 15:34:00,
2013-04-26 11:39:00,64.2,46.7,30.37,SE,135,1.3,5.5,53,0.00,,---,0.00,VWS V14.00,2013-04-26 15:39:00,
2013-04-26 11:44:00,64.4,46.4,30.37,NNE,22,3.1,7.8,52,0.00,,---,0.00,VWS V14.00,2013-04-26 15:44:00,
2013-04-26 11:49:00,64.2,46.2,30.36,East,90,0.0,7.8,52,0.00,,---,0.00,VWS V14.00,2013-04-26 15:49:00,
2013-04-26 11:54:00,64.5,46.5,30.36,WSW,248,2.6,3.3,52,0.00,,---,0.00,VWS V14.00,2013-04-26 15:54:00,
2013-04-26 12:00:00,64.7,46.7,30.36,NE,45,0.0,0.0,52,0.00,,---,0.00,VWS V14.00,2013-04-26 16:00:00,
2013-04-26 12:05:00,64.9,46.9,30.37,NNE,22,0.0,0.0,52,0.00,,---,0.00,VWS V14.00,2013-04-26 16:05:00,
2013-04-26 12:10:00,64.9,46.9,30.36,North,0,1.5,1.5,52,0.00,,---,0.00,VWS V14.00,2013-04-26 16:10:00,
2013-04-26 12:15:00,64.9,47.4,30.37,SW,225,0.0,2.2,53,0.00,,---,0.00,VWS V14.00,2013-04-26 16:15:00,
2013-04-26 12:20:00,64.7,47.2,30.36,East,90,0.0,0.0,53,0.00,,---,0.00,VWS V14.00,2013-04-26 16:20:00,
2013-04-26 12:25:00,65.1,47.6,30.36,SE,135,0.0,0.8,53,0.00,,---,0.00,VWS V14.00,2013-04-26 16:25:00,
2013-04-26 12:30:00,65.6,48.0,30.36,NE,45,0.0,0.0,53,0.00,,---,0.00,VWS V14.00,2013-04-26 16:30:00,
2013-04-26 12:35:00,65.8,47.2,30.36,ESE,112,0.0,0.2,51,0.00,,---,0.00,VWS V14.00,2013-04-26 16:35:00,
2013-04-26 12:40:00,66.0,47.9,30.36,SE,135,0.0,0.0,52,0.00,,---,0.00,VWS V14.00,2013-04-26 16:40:00,
2013-04-26 12:45:00,66.5,48.3,30.36,SSE,158,4.4,4.4,52,0.00,,---,0.00,VWS V14.00,2013-04-26 16:45:00,
2013-04-26 12:51:00,66.7,48.5,30.36,ENE,68,3.1,3.1,52,0.00,,---,0.00,VWS V14.00,2013-04-26 16:51:00,
2013-04-26 12:56:00,66.9,48.2,30.36,SSW,202,0.0,5.8,51,0.00,,---,0.00,VWS V14.00,2013-04-26 16:56:00,
2013-04-26 13:01:00,67.2,48.5,30.36,ENE,68,2.6,2.6,51,0.00,,---,0.00,VWS V14.00,2013-04-26 17:01:00,
2013-04-26 13:06:00,67.1,48.4,30.35,NE,45,0.6,2.6,51,0.00,,---,0.00,VWS V14.00,2013-04-26 17:06:00,
2013-04-26 13:11:00,67.2,48.0,30.35,NNE,22,2.0,2.0,50,0.00,,---,0.00,VWS V14.00,2013-04-26 17:11:00,
2013-04-26 13:16:00,67.6,48.8,30.35,SE,135,0.6,6.2,51,0.00,,---,0.00,VWS V14.00,2013-04-26 17:16:00,
2013-04-26 13:21:00,67.8,48.5,30.35,SSE,158,1.1,1.1,50,0.00,,---,0.00,VWS V14.00,2013-04-26 17:21:00,
2013-04-26 13:26:00,68.1,49.8,30.34,East,90,5.8,5.8,52,0.00,,---,0.00,VWS V14.00,2013-04-26 17:26:00,
2013-04-26 13:31:00,68.7,50.9,30.34,NNE,22,2.0,2.0,53,0.00,,---,0.00,VWS V14.00,2013-04-26 17:31:00,
2013-04-26 13:36:00,68.9,49.5,30.34,NE,45,0.0,4.6,50,0.00,,---,0.00,VWS V14.00,2013-04-26 17:36:00,
2013-04-26 13:41:00,68.9,49.5,30.34,SSW,202,1.3,1.3,50,0.00,,---,0.00,VWS V14.00,2013-04-26 17:41:00,
2013-04-26 13:46:00,68.7,48.8,30.34,NE,45,0.0,1.3,49,0.00,,---,0.00,VWS V14.00,2013-04-26 17:46:00,
2013-04-26 13:51:00,68.5,49.2,30.33,SSW,202,0.0,0.0,50,0.00,,---,0.00,VWS V14.00,2013-04-26 17:51:00,
2013-04-26 13:56:00,68.9,49.5,30.34,ESE,112,0.0,0.0,50,0.00,,---,0.00,VWS V14.00,2013-04-26 17:56:00,
2013-04-26 14:01:00,69.0,49.6,30.34,North,0,0.0,0.0,50,0.00,,---,0.00,VWS V14.00,2013-04-26 18:01:00,
2013-04-26 14:06:00,69.2,50.3,30.34,South,180,7.8,7.8,51,0.00,,---,0.00,VWS V14.00,2013-04-26 18:06:00,
2013-04-26 14:11:00,69.6,49.6,30.34,NE,45,0.8,0.8,49,0.00,,---,0.00,VWS V14.00,2013-04-26 18:11:00,
2013-04-26 14:16:00,69.4,48.9,30.34,NNE,22,1.5,1.5,48,0.00,,---,0.00,VWS V14.00,2013-04-26 18:16:00,
2013-04-26 14:21:00,68.9,49.0,30.34,NW,315,0.0,0.0,49,0.00,,---,0.00,VWS V14.00,2013-04-26 18:21:00,
2013-04-26 14:26:00,69.0,49.1,30.34,WSW,248,2.9,2.9,49,0.00,,---,0.00,VWS V14.00,2013-04-26 18:26:00,
2013-04-26 14:31:00,69.2,49.2,30.34,SW,225,0.0,0.0,49,0.00,,---,0.00,VWS V14.00,2013-04-26 18:31:00,
2013-04-26 14:36:00,68.5,47.5,30.34,WSW,248,1.5,4.9,47,0.00,,---,0.00,VWS V14.00,2013-04-26 18:36:00,
2013-04-26 14:41:00,68.7,48.8,30.33,South,180,0.0,0.0,49,0.00,,---,0.00,VWS V14.00,2013-04-26 18:41:00,
2013-04-26 14:46:00,69.0,49.1,30.33,ESE,112,0.0,0.0,49,0.00,,---,0.00,VWS V14.00,2013-04-26 18:46:00,
2013-04-26 14:51:00,69.0,49.1,30.33,WSW,248,0.0,5.5,49,0.00,,---,0.00,VWS V14.00,2013-04-26 18:51:00,
2013-04-26 14:56:00,69.0,49.1,30.33,NE,45,6.0,6.0,49,0.00,,---,0.00,VWS V14.00,2013-04-26 18:56:00,
2013-04-26 15:01:00,68.7,48.2,30.32,NE,45,0.0,0.0,48,0.00,,---,0.00,VWS V14.00,2013-04-26 19:01:00,
2013-04-26 15:06:00,68.7,48.8,30.31,WSW,248,0.0,4.0,49,0.00,,---,0.00,VWS V14.00,2013-04-26 19:06:00,
2013-04-26 15:11:00,68.7,48.2,30.31,ENE,68,0.0,0.0,48,0.00,,---,0.00,VWS V14.00,2013-04-26 19:11:00,
2013-04-26 15:16:00,69.0,49.1,30.32,WSW,248,0.0,0.0,49,0.00,,---,0.00,VWS V14.00,2013-04-26 19:16:00,
2013-04-26 15:21:00,69.0,49.1,30.31,SE,135,5.3,5.5,49,0.00,,---,0.00,VWS V14.00,2013-04-26 19:21:00,
2013-04-26 15:26:00,69.0,48.5,30.31,ESE,112,3.3,5.5,48,0.00,,---,0.00,VWS V14.00,2013-04-26 19:26:00,
2013-04-26 15:31:00,69.2,48.1,30.31,SW,225,0.4,1.5,47,0.00,,---,0.00,VWS V14.00,2013-04-26 19:31:00,
2013-04-26 15:36:00,69.6,49.6,30.30,SSW,202,0.0,4.2,49,0.00,,---,0.00,VWS V14.00,2013-04-26 19:36:00,
2013-04-26 15:41:00,69.6,49.1,30.30,West,270,2.9,2.9,48,0.00,,---,0.00,VWS V14.00,2013-04-26 19:41:00,
2013-04-26 15:46:00,69.4,48.3,30.30,South,180,0.0,4.0,47,0.00,,---,0.00,VWS V14.00,2013-04-26 19:46:00,
2013-04-26 15:51:00,69.0,48.0,30.30,ESE,112,0.8,0.8,47,0.00,,---,0.00,VWS V14.00,2013-04-26 19:51:00,
2013-04-26 15:56:00,68.7,48.2,30.29,ENE,68,0.0,0.8,48,0.00,,---,0.00,VWS V14.00,2013-04-26 19:56:00,
2013-04-26 16:01:00,68.1,47.7,30.29,SE,135,0.0,1.1,48,0.00,,---,0.00,VWS V14.00,2013-04-26 20:01:00,
2013-04-26 16:06:00,67.8,48.0,30.30,WSW,248,0.0,1.1,49,0.00,,---,0.00,VWS V14.00,2013-04-26 20:06:00,
2013-04-26 16:11:00,68.0,48.2,30.30,SSW,202,0.0,0.0,49,0.00,,---,0.00,VWS V14.00,2013-04-26 20:11:00,
2013-04-26 16:16:00,68.1,48.2,30.29,WSW,248,1.3,1.3,49,0.00,,---,0.00,VWS V14.00,2013-04-26 20:16:00,
2013-04-26 16:21:00,68.5,48.6,30.29,ENE,68,2.6,2.6,49,0.00,,---,0.00,VWS V14.00,2013-04-26 20:21:00,
2013-04-26 16:26:00,68.5,48.6,30.28,SW,225,0.0,2.6,49,0.00,,---,0.00,VWS V14.00,2013-04-26 20:26:00,
2013-04-26 16:31:00,68.1,48.2,30.28,South,180,0.0,0.0,49,0.00,,---,0.00,VWS V14.00,2013-04-26 20:31:00,
2013-04-26 16:36:00,67.8,48.0,30.29,ENE,68,0.0,0.0,49,0.00,,---,0.00,VWS V14.00,2013-04-26 20:36:00,
2013-04-26 16:41:00,67.8,48.0,30.29,SW,225,0.0,0.0,49,0.00,,---,0.00,VWS V14.00,2013-04-26 20:41:00,
2013-04-26 16:46:00,67.8,48.0,30.29,West,270,0.0,0.0,49,0.00,,---,0.00,VWS V14.00,2013-04-26 20:46:00,
2013-04-26 16:53:00,67.6,47.8,30.28,SSW,202,0.0,0.0,49,0.00,,---,0.00,VWS V14.00,2013-04-26 20:53:00,
2013-04-26 16:58:00,67.1,47.9,30.28,SSE,158,0.0,3.3,50,0.00,,---,0.00,VWS V14.00,2013-04-26 20:58:00,
2013-04-26 17:03:00,66.7,47.0,30.27,SW,225,0.0,3.3,49,0.00,,---,0.00,VWS V14.00,2013-04-26 21:03:00,
2013-04-26 17:08:00,66.5,46.8,30.27,SW,225,0.0,3.3,49,0.00,,---,0.00,VWS V14.00,2013-04-26 21:08:00,
2013-04-26 17:13:00,66.3,47.1,30.27,East,90,2.4,2.4,50,0.00,,---,0.00,VWS V14.00,2013-04-26 21:13:00,
2013-04-26 17:18:00,66.0,46.8,30.27,SE,135,0.0,2.4,50,0.00,,---,0.00,VWS V14.00,2013-04-26 21:18:00,
2013-04-26 17:23:00,66.0,47.4,30.26,SSE,158,0.0,0.0,51,0.00,,---,0.00,VWS V14.00,2013-04-26 21:23:00,
2013-04-26 17:28:00,66.0,47.4,30.27,SE,135,0.0,0.0,51,0.00,,---,0.00,VWS V14.00,2013-04-26 21:28:00,
2013-04-26 17:33:00,65.8,47.2,30.26,SE,135,0.0,0.0,51,0.00,,---,0.00,VWS V14.00,2013-04-26 21:33:00,
2013-04-26 17:38:00,66.0,47.4,30.26,ESE,112,0.0,0.0,51,0.00,,---,0.00,VWS V14.00,2013-04-26 21:38:00,
2013-04-26 17:43:00,66.2,47.6,30.28,WSW,248,6.4,6.4,51,0.00,,---,0.00,VWS V14.00,2013-04-26 21:43:00,
2013-04-26 17:48:00,66.2,47.6,30.28,SW,225,1.7,6.4,51,0.00,,---,0.00,VWS V14.00,2013-04-26 21:48:00,
2013-04-26 17:53:00,66.0,46.8,30.28,SSE,158,0.0,1.7,50,0.00,,---,0.00,VWS V14.00,2013-04-26 21:53:00,
2013-04-26 17:58:00,65.8,46.7,30.28,East,90,0.0,1.7,50,0.00,,---,0.00,VWS V14.00,2013-04-26 21:58:00,
2013-04-26 18:03:00,66.0,47.4,30.28,WSW,248,5.8,5.8,51,0.00,,---,0.00,VWS V14.00,2013-04-26 22:03:00,
2013-04-26 18:08:00,66.5,47.3,30.28,South,180,0.0,5.8,50,0.00,,---,0.00,VWS V14.00,2013-04-26 22:08:00,
2013-04-26 18:13:00,66.5,47.3,30.28,SSE,158,4.4,4.4,50,0.00,,---,0.00,VWS V14.00,2013-04-26 22:13:00,
2013-04-26 18:18:00,65.8,46.7,30.28,South,180,0.8,4.4,50,0.00,,---,0.00,VWS V14.00,2013-04-26 22:18:00,
2013-04-26 18:23:00,65.4,46.8,30.28,SW,225,1.7,1.7,51,0.00,,---,0.00,VWS V14.00,2013-04-26 22:23:00,
2013-04-26 18:28:00,65.1,46.5,30.28,SW,225,0.0,1.7,51,0.00,,---,0.00,VWS V14.00,2013-04-26 22:28:00,
2013-04-26 18:33:00,64.5,46.0,30.28,SSW,202,0.0,6.0,51,0.00,,---,0.00,VWS V14.00,2013-04-26 22:33:00,
2013-04-26 18:38:00,64.2,46.2,30.28,SE,135,0.6,6.0,52,0.00,,---,0.00,VWS V14.00,2013-04-26 22:38:00,
2013-04-26 18:43:00,64.0,46.0,30.28,ESE,112,0.0,0.0,52,0.00,,---,0.00,VWS V14.00,2013-04-26 22:43:00,
2013-04-26 18:48:00,63.5,45.6,30.29,SSE,158,0.4,0.4,52,0.00,,---,0.00,VWS V14.00,2013-04-26 22:48:00,
2013-04-26 18:53:00,63.3,45.4,30.29,ESE,112,0.0,0.4,52,0.00,,---,0.00,VWS V14.00,2013-04-26 22:53:00,
2013-04-26 18:58:00,63.1,45.2,30.29,SSW,202,0.0,0.4,52,0.00,,---,0.00,VWS V14.00,2013-04-26 22:58:00,
2013-04-26 19:03:00,62.9,45.5,30.30,SSW,202,0.0,0.0,53,0.00,,---,0.00,VWS V14.00,2013-04-26 23:03:00,
2013-04-26 19:08:00,62.7,45.8,30.30,SSW,202,0.0,0.0,54,0.00,,---,0.00,VWS V14.00,2013-04-26 23:08:00,
2013-04-26 19:13:00,62.7,45.8,30.31,SSW,202,0.0,0.0,54,0.00,,---,0.00,VWS V14.00,2013-04-26 23:13:00,
2013-04-26 19:18:00,62.4,45.5,30.31,SSW,202,0.0,0.0,54,0.00,,---,0.00,VWS V14.00,2013-04-26 23:18:00,
2013-04-26 19:23:00,62.2,45.4,30.31,SSW,202,0.0,0.0,54,0.00,,---,0.00,VWS V14.00,2013-04-26 23:23:00,
2013-04-26 19:28:00,62.2,45.4,30.31,SSW,202,0.0,0.0,54,0.00,,---,0.00,VWS V14.00,2013-04-26 23:28:00,
2013-04-26 19:33:00,61.8,45.5,30.31,SSW,202,0.0,0.0,55,0.00,,---,0.00,VWS V14.00,2013-04-26 23:33:00,
2013-04-26 19:38:00,61.7,45.4,30.30,SSW,202,0.0,0.0,55,0.00,,---,0.00,VWS V14.00,2013-04-26 23:38:00,
2013-04-26 19:43:00,61.5,45.7,30.30,SSE,158,0.0,0.0,56,0.00,,---,0.00,VWS V14.00,2013-04-26 23:43:00,
2013-04-26 19:48:00,61.3,45.5,30.30,SSW,202,0.0,0.0,56,0.00,,---,0.00,VWS V14.00,2013-04-26 23:48:00,
2013-04-26 19:53:00,60.9,45.6,30.31,SSW,202,0.0,0.0,57,0.00,,---,0.00,VWS V14.00,2013-04-26 23:53:00,
2013-04-26 20:05:00,60.4,46.0,30.32,SSW,202,0.0,0.0,59,0.00,,---,0.00,VWS V14.00,2013-04-27 00:05:00,
2013-04-26 20:10:00,59.7,45.8,30.31,SSW,202,0.0,0.0,60,0.00,,---,0.00,VWS V14.00,2013-04-27 00:10:00,
2013-04-26 20:15:00,59.5,46.1,30.31,SSW,202,0.0,0.0,61,0.00,,---,0.00,VWS V14.00,2013-04-27 00:15:00,
2013-04-26 20:20:00,59.1,45.7,30.32,SSW,202,0.0,0.0,61,0.00,,---,0.00,VWS V14.00,2013-04-27 00:20:00,
2013-04-26 20:25:00,58.8,45.8,30.32,SSW,202,0.0,0.0,62,0.00,,---,0.00,VWS V14.00,2013-04-27 00:25:00,
2013-04-26 20:30:00,58.8,45.8,30.32,SSW,202,0.0,0.0,62,0.00,,---,0.00,VWS V14.00,2013-04-27 00:30:00,
2013-04-26 20:35:00,58.2,45.7,30.31,SSW,202,0.0,0.0,63,0.00,,---,0.00,VWS V14.00,2013-04-27 00:35:00,
2013-04-26 20:40:00,58.1,45.6,30.31,SSW,202,0.0,0.0,63,0.00,,---,0.00,VWS V14.00,2013-04-27 00:40:00,
2013-04-26 20:46:00,57.9,45.8,30.31,SSW,202,0.0,0.0,64,0.00,,---,0.00,VWS V14.00,2013-04-27 00:46:00,
2013-04-26 20:51:00,57.3,45.7,30.31,SSW,202,0.0,0.0,65,0.00,,---,0.00,VWS V14.00,2013-04-27 00:51:00,
2013-04-26 20:56:00,57.0,45.8,30.31,SSW,202,0.0,0.0,66,0.00,,---,0.00,VWS V14.00,2013-04-27 00:56:00,
2013-04-26 21:01:00,56.6,45.4,30.31,SSW,202,0.0,0.0,66,0.00,,---,0.00,VWS V14.00,2013-04-27 01:01:00,
2013-04-26 21:06:00,56.1,44.9,30.31,SSW,202,0.0,0.0,66,0.00,,---,0.00,VWS V14.00,2013-04-27 01:06:00,
2013-04-26 21:11:00,55.7,44.9,30.32,SSW,202,0.0,0.0,67,0.00,,---,0.00,VWS V14.00,2013-04-27 01:11:00,
2013-04-26 21:16:00,55.5,45.1,30.31,SSW,202,0.0,0.0,68,0.00,,---,0.00,VWS V14.00,2013-04-27 01:16:00,
2013-04-26 21:21:00,55.2,45.2,30.31,SSW,202,0.0,0.0,69,0.00,,---,0.00,VWS V14.00,2013-04-27 01:21:00,
2013-04-26 21:26:00,55.0,45.0,30.31,SSW,202,0.0,0.0,69,0.00,,---,0.00,VWS V14.00,2013-04-27 01:26:00,
2013-04-26 21:31:00,54.8,45.2,30.30,SSW,202,0.0,0.0,70,0.00,,---,0.00,VWS V14.00,2013-04-27 01:31:00,
2013-04-26 21:36:00,54.6,45.0,30.30,SSW,202,0.0,0.0,70,0.00,,---,0.00,VWS V14.00,2013-04-27 01:36:00,
2013-04-26 21:41:00,54.5,45.3,30.30,SSW,202,0.0,0.0,71,0.00,,---,0.00,VWS V14.00,2013-04-27 01:41:00,
2013-04-26 21:46:00,54.3,45.1,30.30,SSW,202,0.0,0.0,71,0.00,,---,0.00,VWS V14.00,2013-04-27 01:46:00,
2013-04-26 21:51:00,54.1,44.9,30.30,SSW,202,0.0,0.0,71,0.00,,---,0.00,VWS V14.00,2013-04-27 01:51:00,
2013-04-26 21:56:00,54.1,44.9,30.30,SSW,202,0.0,0.0,71,0.00,,---,0.00,VWS V14.00,2013-04-27 01:56:00,
2013-04-26 22:01:00,53.9,44.7,30.30,SSW,202,0.0,0.0,71,0.00,,---,0.00,VWS V14.00,2013-04-27 02:01:00,
2013-04-26 22:06:00,53.9,44.7,30.30,SSW,202,0.0,0.0,71,0.00,,---,0.00,VWS V14.00,2013-04-27 02:06:00,
2013-04-26 22:11:00,53.7,44.9,30.30,SSW,202,0.0,0.0,72,0.00,,---,0.00,VWS V14.00,2013-04-27 02:11:00,
2013-04-26 22:16:00,53.7,44.5,30.29,SSW,202,0.0,0.0,71,0.00,,---,0.00,VWS V14.00,2013-04-27 02:16:00,
2013-04-26 22:21:00,53.6,44.4,30.29,SSW,202,0.0,0.0,71,0.00,,---,0.00,VWS V14.00,2013-04-27 02:21:00,
2013-04-26 22:26:00,53.4,44.2,30.29,SSW,202,0.0,0.0,71,0.00,,---,0.00,VWS V14.00,2013-04-27 02:26:00,
2013-04-26 22:31:00,53.4,44.6,30.29,SSW,202,0.0,0.0,72,0.00,,---,0.00,VWS V14.00,2013-04-27 02:31:00,
2013-04-26 22:36:00,53.4,44.6,30.30,SSW,202,0.0,0.0,72,0.00,,---,0.00,VWS V14.00,2013-04-27 02:36:00,
2013-04-26 22:41:00,53.4,45.0,30.30,SSW,202,0.0,0.0,73,0.00,,---,0.00,VWS V14.00,2013-04-27 02:41:00,
2013-04-26 22:46:00,53.4,45.0,30.30,SSW,202,0.0,0.0,73,0.00,,---,0.00,VWS V14.00,2013-04-27 02:46:00,
2013-04-26 22:51:00,53.2,44.8,30.30,SSW,202,0.0,0.0,73,0.00,,---,0.00,VWS V14.00,2013-04-27 02:51:00,
2013-04-26 22:56:00,53.2,44.8,30.29,SSW,202,0.0,0.0,73,0.00,,---,0.00,VWS V14.00,2013-04-27 02:56:00,
2013-04-26 23:01:00,53.2,44.8,30.29,SSW,202,0.0,0.0,73,0.00,,---,0.00,VWS V14.00,2013-04-27 03:01:00,
2013-04-26 23:06:00,53.2,45.1,30.29,SSW,202,0.0,0.0,74,0.00,,---,0.00,VWS V14.00,2013-04-27 03:06:00,
2013-04-26 23:11:00,53.2,45.1,30.29,SSW,202,0.0,0.0,74,0.00,,---,0.00,VWS V14.00,2013-04-27 03:11:00,
2013-04-26 23:16:00,53.2,45.1,30.28,SSW,202,0.0,0.0,74,0.00,,---,0.00,VWS V14.00,2013-04-27 03:16:00,
2013-04-26 23:21:00,53.2,45.1,30.29,SSW,202,0.0,0.0,74,0.00,,---,0.00,VWS V14.00,2013-04-27 03:21:00,
2013-04-26 23:26:00,53.2,45.1,30.29,SSW,202,0.0,0.0,74,0.00,,---,0.00,VWS V14.00,2013-04-27 03:26:00,
2013-04-26 23:31:00,53.0,45.3,30.29,SSW,202,0.0,0.0,75,0.00,,---,0.00,VWS V14.00,2013-04-27 03:31:00,
2013-04-26 23:36:00,52.8,45.5,30.31,SSW,202,0.0,0.0,76,0.00,,---,0.00,VWS V14.00,2013-04-27 03:36:00,
2013-04-26 23:41:00,52.8,45.5,30.30,SSW,202,0.0,0.0,76,0.00,,---,0.00,VWS V14.00,2013-04-27 03:41:00,
2013-04-26 23:46:00,52.8,45.5,30.30,SSW,202,0.0,0.0,76,0.00,,---,0.00,VWS V14.00,2013-04-27 03:46:00,
2013-04-26 23:51:00,52.8,45.5,30.31,SSW,202,0.0,0.0,76,0.00,,---,0.00,VWS V14.00,2013-04-27 03:51:00,
2013-04-26 23:56:00,52.8,45.5,30.31,SSW,202,0.0,0.0,76,0.00,,---,0.00,VWS V14.00,2013-04-27 03:56:00,